WetterOnline ( https://www.wetteronline.at )

Wetter aktuell Messina

Aktuelles Wetter: Messina (51m)

6-stündlich | Neueste Meldungen
Ortszeit Temperatur Wetter
Sa, 20.07. 8:00 25.0° C fast wolkenlos
Sa, 20.07. 2:00 24.2° C leicht bewölkt
Fr, 19.07. 20:00 26.0° C leicht bewölkt
Fr, 19.07. 14:00 28.2° C leicht bewölkt
Fr, 19.07. 8:00 24.2° C leicht bewölkt
Fr, 19.07. 2:00 24.0° C leicht bewölkt
Do, 18.07. 20:00 26.6° C leicht bewölkt
Do, 18.07. 14:00 28.4° C leicht bewölkt
Ortszeit Temperatur Wetter
Sa, 20.07. 13:00 28.6° C leicht bewölkt
Sa, 20.07. 12:55 29° C leicht bewölkt
Sa, 20.07. 12:00 28.8° C leicht bewölkt
Sa, 20.07. 11:55 29° C leicht bewölkt
Sa, 20.07. 11:00 27.8° C fast wolkenlos
Sa, 20.07. 10:55 28° C leicht bewölkt
Sa, 20.07. 10:00 27.0° C fast wolkenlos
Sa, 20.07. 9:55 27° C leicht bewölkt
Sa, 20.07. 9:00 26.0° C fast wolkenlos
Ortszeit Relative Feuchte Sichtweite
Sa, 20.07. 8:00 82% 20 km
Sa, 20.07. 2:00 79% 10 km
Fr, 19.07. 20:00 74% 20 km
Fr, 19.07. 14:00 59% 20 km
Fr, 19.07. 8:00 79% 20 km
Fr, 19.07. 2:00 76% 20 km
Do, 18.07. 20:00 49% 20 km
Do, 18.07. 14:00 34% 20 km
Ortszeit Relative Feuchte Sichtweite
Sa, 20.07. 13:00 63% 20 km
Sa, 20.07. 12:55 62% >10 km
Sa, 20.07. 12:00 54% 20 km
Sa, 20.07. 11:55 55% >10 km
Sa, 20.07. 11:00 66% 20 km
Sa, 20.07. 10:55 66% >10 km
Sa, 20.07. 10:00 71% 20 km
Sa, 20.07. 9:55 70% >10 km
Sa, 20.07. 9:00 78% 20 km
Ortszeit Niederschlagsmenge Niederschlagsart
Sa, 20.07. 8:00 0.0 l/m2 in 12 Std. -
Sa, 20.07. 2:00 0.0 l/m2 in 6 Std. -
Fr, 19.07. 20:00 0.0 l/m2 in 12 Std. -
Fr, 19.07. 14:00 0.0 l/m2 in 6 Std. -
Fr, 19.07. 8:00 0.0 l/m2 in 12 Std. -
Fr, 19.07. 2:00 0.0 l/m2 in 6 Std. -
Do, 18.07. 20:00 0.0 l/m2 in 12 Std. -
Do, 18.07. 14:00 0.0 l/m2 in 6 Std. -
Ortszeit Niederschlagsmenge Niederschlagsart
Sa, 20.07. 13:00 keine Meldung -
Sa, 20.07. 12:55 keine Meldung -
Sa, 20.07. 12:00 keine Meldung -
Sa, 20.07. 11:55 keine Meldung -
Sa, 20.07. 11:00 keine Meldung -
Sa, 20.07. 10:55 keine Meldung -
Sa, 20.07. 10:00 keine Meldung -
Sa, 20.07. 9:55 keine Meldung -
Sa, 20.07. 9:00 keine Meldung -
Ortszeit Stärke Spitze Richtung
km/h Bft. km/h Grad Sektor
Sa, 20.07. 8:00 15 3 - 40° NO
Sa, 20.07. 2:00 7 2 - 350° N
Fr, 19.07. 20:00 7 2 - 330° NW
Fr, 19.07. 14:00 19 3 - 350° N
Fr, 19.07. 8:00 7 2 - 330° NW
Fr, 19.07. 2:00 6 1 - 290° W
Do, 18.07. 20:00 7 2 - 330° NW
Do, 18.07. 14:00 9 2 - 360° N
Ortszeit Stärke Spitze Richtung
km/h Bft. km/h Grad Sektor
Sa, 20.07. 13:00 19 3 - 50° NO
Sa, 20.07. 12:55 19 3 - 50° NO
Sa, 20.07. 12:00 17 3 - 50° NO
Sa, 20.07. 11:55 17 3 - 50° NO
Sa, 20.07. 11:00 15 3 - 50° NO
Sa, 20.07. 10:55 15 3 - 50° NO
Sa, 20.07. 10:00 15 3 - 50° NO
Sa, 20.07. 9:55 15 3 - 50° NO
Sa, 20.07. 9:00 13 3 - 40° NO
Ortszeit Untergrenze Bedeckung Gattung
total tief tief mittel hoch
Sa, 20.07. 8:00 750 m 1/8 1/8 Sc - -
Sa, 20.07. 2:00 750 m 2/8 2/8 Sc - -
Fr, 19.07. 20:00 - 3/8 - - - Ci
Fr, 19.07. 14:00 1200 m 4/8 3/8 Sc - Ci
Fr, 19.07. 8:00 990 m 3/8 3/8 Sc - -
Fr, 19.07. 2:00 1200 m 2/8 1/8 Sc - -
Do, 18.07. 20:00 1380 m 3/8 2/8 Sc Ac -
Do, 18.07. 14:00 1080 m 6/8 2/8 Cu Ac Ci
Ortszeit Bedeckungsgrad in Achtel und Wolkenuntergrenze
Sa, 20.07. 13:00 2(1050m)
Sa, 20.07. 12:55 1-2(1050m)
Sa, 20.07. 12:00 2(1050m)
Sa, 20.07. 11:55 1-2(1050m)
Sa, 20.07. 11:00 1(900m)
Sa, 20.07. 10:55 1-2(900m)
Sa, 20.07. 10:00 1(900m)
Sa, 20.07. 9:55 1-2(900m)
Sa, 20.07. 9:00 1(750m)
Ortszeit Luftdruck NN (hPa) Tendenz (hPa in 3 Std.)
Sa, 20.07. 8:00 1017 + 0,8
Sa, 20.07. 2:00 1016 0,0
Fr, 19.07. 20:00 1015 + 0,1
Fr, 19.07. 14:00 1015 0,0
Fr, 19.07. 8:00 1014 + 0,7
Fr, 19.07. 2:00 1014 + 0,1
Do, 18.07. 20:00 1012 + 0,2
Do, 18.07. 14:00 1012 0,0
Ortszeit Luftdruck NN (hPa) Tendenz (hPa in 3 Std.)
Sa, 20.07. 13:00 1017 + 0,2
Sa, 20.07. 12:55 1017 keine Meldung
Sa, 20.07. 12:00 1017 + 0,3
Sa, 20.07. 11:55 1017 keine Meldung
Sa, 20.07. 11:00 1017 + 0,4
Sa, 20.07. 10:55 1017 keine Meldung
Sa, 20.07. 10:00 1017 + 0,9
Sa, 20.07. 9:55 1017 keine Meldung
Sa, 20.07. 9:00 1017 + 0,9
Ortszeit Schneehöhe (cm)
Sa, 20.07. 8:00 0
Sa, 20.07. 2:00 -
Fr, 19.07. 20:00 -
Fr, 19.07. 14:00 -
Fr, 19.07. 8:00 -
Fr, 19.07. 2:00 -
Do, 18.07. 20:00 -
Do, 18.07. 14:00 -
Ortszeit Schneehöhe (cm)
Sa, 20.07. 13:00 -
Sa, 20.07. 12:55 -
Sa, 20.07. 12:00 -
Sa, 20.07. 11:55 -
Sa, 20.07. 11:00 -
Sa, 20.07. 10:55 -
Sa, 20.07. 10:00 -
Sa, 20.07. 9:55 -
Sa, 20.07. 9:00 -
Link zu dieser Seite / Seite empfehlen

Das Wetter in ...